createdAt,value
2022-09-07T00:02:03.102Z,15.83
2022-09-07T00:04:29.298Z,15.77
2022-09-07T00:06:55.499Z,15.79
2022-09-07T00:09:21.642Z,15.75
2022-09-07T00:11:47.794Z,15.70
2022-09-07T00:14:13.971Z,15.70
2022-09-07T00:16:40.178Z,15.68
2022-09-07T00:19:06.354Z,15.66
2022-09-07T00:21:32.536Z,15.66
2022-09-07T00:23:58.682Z,15.68
2022-09-07T00:26:27.295Z,15.70
2022-09-07T00:28:57.559Z,15.72
2022-09-07T00:31:24.035Z,15.76
2022-09-07T00:33:51.825Z,15.82
2022-09-07T00:36:19.278Z,15.82
2022-09-07T00:38:45.784Z,15.83
2022-09-07T00:41:12.335Z,15.85
2022-09-07T00:43:41.147Z,15.84
2022-09-07T00:46:43.749Z,15.84
2022-09-07T00:49:16.145Z,15.83
2022-09-07T00:51:52.967Z,15.81
2022-09-07T00:54:28.045Z,15.79
2022-09-07T00:56:54.360Z,15.75
2022-09-07T00:59:26.807Z,15.70
2022-09-07T01:01:53.451Z,15.63
2022-09-07T01:04:22.239Z,15.53
2022-09-07T01:06:49.191Z,15.43
2022-09-07T01:09:18.739Z,15.33
2022-09-07T01:11:51.132Z,15.27
2022-09-07T01:14:21.591Z,15.17
2022-09-07T01:17:03.154Z,15.11
2022-09-07T01:19:53.297Z,15.01
2022-09-07T01:22:53.430Z,14.94
2022-09-07T01:25:44.260Z,14.88
2022-09-07T01:28:20.535Z,14.78
2022-09-07T01:31:11.651Z,14.71
2022-09-07T01:33:54.143Z,14.63
2022-09-07T01:36:44.891Z,14.53
2022-09-07T01:39:11.857Z,14.44
2022-09-07T01:41:52.284Z,14.35
2022-09-07T01:44:23.512Z,14.29
2022-09-07T01:47:01.557Z,14.28
2022-09-07T01:49:40.392Z,14.22
2022-09-07T01:52:22.527Z,14.15
2022-09-07T01:54:58.524Z,14.11
2022-09-07T01:57:36.485Z,14.06
2022-09-07T02:00:14.374Z,14.02
2022-09-07T02:02:55.405Z,13.98
2022-09-07T02:05:35.658Z,13.92
2022-09-07T02:08:16.493Z,13.87
2022-09-07T02:10:50.745Z,13.81
2022-09-07T02:13:20.599Z,13.77
2022-09-07T02:15:57.750Z,13.71
2022-09-07T02:18:26.693Z,13.68
2022-09-07T02:20:57.453Z,13.65
2022-09-07T02:23:30.707Z,13.62
2022-09-07T02:26:05.303Z,13.57
2022-09-07T02:28:36.681Z,13.56
2022-09-07T02:31:03.312Z,13.54
2022-09-07T02:33:29.811Z,13.55
2022-09-07T02:35:56.727Z,13.53
2022-09-07T02:38:22.918Z,13.51
2022-09-07T02:40:57.887Z,13.50
2022-09-07T02:43:25.630Z,13.47
2022-09-07T02:46:06.403Z,13.45
2022-09-07T02:48:49.983Z,13.47
2022-09-07T02:51:36.075Z,13.46
2022-09-07T02:54:29.526Z,13.48
2022-09-07T02:57:12.872Z,13.45
2022-09-07T03:00:04.370Z,13.44
2022-09-07T03:03:01.013Z,13.41
2022-09-07T03:05:42.340Z,13.37
2022-09-07T03:08:17.721Z,13.38
2022-09-07T03:10:44.506Z,13.37
2022-09-07T03:13:21.082Z,13.36
2022-09-07T03:15:47.375Z,13.35
2022-09-07T03:18:13.552Z,13.32
2022-09-07T03:20:39.703Z,13.28
2022-09-07T03:23:05.936Z,13.29
2022-09-07T03:25:32.089Z,13.27
2022-09-07T03:27:58.252Z,13.24
2022-09-07T03:30:24.481Z,13.24
2022-09-07T03:32:51.031Z,13.21
2022-09-07T03:35:17.994Z,13.22
2022-09-07T03:37:44.163Z,13.20
2022-09-07T03:40:12.230Z,13.21
2022-09-07T03:42:38.528Z,13.17
2022-09-07T03:45:06.641Z,13.16
2022-09-07T03:47:36.977Z,13.16
2022-09-07T03:50:04.677Z,13.16
2022-09-07T03:52:30.827Z,13.13
2022-09-07T03:54:56.977Z,13.10
2022-09-07T03:57:23.267Z,13.05
2022-09-07T03:59:50.691Z,13.02
2022-09-07T04:02:17.327Z,13.02
2022-09-07T04:04:46.066Z,13.00
2022-09-07T04:07:13.082Z,12.93
2022-09-07T04:09:39.231Z,12.87
2022-09-07T04:12:05.465Z,12.83
2022-09-07T04:14:31.608Z,12.77
2022-09-07T04:16:57.964Z,12.71
2022-09-07T04:34:42.010Z,12.59
2022-09-07T04:37:08.146Z,12.60
2022-09-07T04:39:34.356Z,12.61
2022-09-07T04:42:00.558Z,12.64
2022-09-07T04:44:26.718Z,12.65
2022-09-07T04:46:52.859Z,12.63
2022-09-07T04:49:20.391Z,12.65
2022-09-07T04:51:46.543Z,12.69
2022-09-07T04:54:12.789Z,12.77
2022-09-07T04:56:39.041Z,12.80
2022-09-07T04:59:05.227Z,12.84
2022-09-07T05:01:31.503Z,12.88
2022-09-07T05:04:00.754Z,12.90
2022-09-07T05:06:27.282Z,12.99
2022-09-07T05:08:54.431Z,13.01
2022-09-07T05:11:28.351Z,13.05
2022-09-07T05:14:03.083Z,13.08
2022-09-07T05:16:30.301Z,13.12
2022-09-07T05:18:59.573Z,13.16
2022-09-07T05:21:28.282Z,13.21
2022-09-07T05:23:56.677Z,13.28
2022-09-07T05:26:26.187Z,13.36
2022-09-07T05:28:52.696Z,13.47
2022-09-07T05:31:21.621Z,13.53
2022-09-07T05:36:37.402Z,13.77
2022-09-07T05:39:05.497Z,13.86
2022-09-07T05:41:31.982Z,13.98
2022-09-07T05:46:44.463Z,14.17
2022-09-07T05:49:10.654Z,14.29
2022-09-07T05:51:37.437Z,14.39
2022-09-07T05:54:03.939Z,14.45
2022-09-07T05:56:30.119Z,14.49
2022-09-07T05:58:56.284Z,14.50
2022-09-07T06:01:22.452Z,14.54
2022-09-07T06:03:48.617Z,14.59
2022-09-07T06:06:17.554Z,14.70
2022-09-07T06:08:46.162Z,14.74
2022-09-07T06:11:15.693Z,14.80
2022-09-07T06:13:42.995Z,14.89
2022-09-07T06:16:11.000Z,15.05
2022-09-07T06:18:39.990Z,15.06
2022-09-07T06:21:17.989Z,15.15
2022-09-07T06:23:45.523Z,15.19
2022-09-07T06:26:11.679Z,15.18
2022-09-07T06:28:40.188Z,15.40
2022-09-07T06:31:09.041Z,15.47
2022-09-07T06:33:36.298Z,15.42
2022-09-07T06:36:05.510Z,15.51
2022-09-07T06:38:33.610Z,15.49
2022-09-07T06:43:57.209Z,15.70
2022-09-07T06:49:10.339Z,15.85
2022-09-07T06:51:36.485Z,15.86
2022-09-07T06:56:48.846Z,16.16
2022-09-07T06:59:15.014Z,16.35
2022-09-07T07:01:41.225Z,16.39
2022-09-07T07:04:07.427Z,16.56
2022-09-07T07:06:38.414Z,16.61
2022-09-07T07:09:06.023Z,16.59
2022-09-07T07:11:32.174Z,16.65
2022-09-07T07:13:58.711Z,16.72
2022-09-07T07:16:24.947Z,16.77
2022-09-07T07:18:55.163Z,16.69
2022-09-07T07:21:21.523Z,16.74
2022-09-07T07:23:52.124Z,16.94
2022-09-07T07:26:26.802Z,16.97
2022-09-07T07:29:00.922Z,16.88
2022-09-07T07:31:28.684Z,17.00
2022-09-07T07:33:55.221Z,17.07
2022-09-07T07:36:26.229Z,17.08
2022-09-07T07:39:02.376Z,17.12
2022-09-07T07:44:17.782Z,17.42
2022-09-07T07:46:46.880Z,17.44
2022-09-07T07:49:13.033Z,17.47
2022-09-07T07:54:25.235Z,17.78
2022-09-07T07:56:51.355Z,17.96
2022-09-07T07:59:17.460Z,17.92
2022-09-07T08:01:43.991Z,18.04
2022-09-07T08:04:10.199Z,18.13
2022-09-07T08:06:37.067Z,18.44
2022-09-07T08:09:03.212Z,18.54
2022-09-07T08:11:31.332Z,18.65
2022-09-07T08:14:00.266Z,18.81
2022-09-07T08:16:26.501Z,19.05
2022-09-07T08:18:53.786Z,19.02
2022-09-07T08:21:19.943Z,19.01
2022-09-07T08:23:46.082Z,19.06
2022-09-07T08:26:12.441Z,19.24
2022-09-07T08:28:41.283Z,19.36
2022-09-07T08:31:10.260Z,19.44
2022-09-07T08:33:37.915Z,19.64
2022-09-07T08:36:07.728Z,19.55
2022-09-07T08:38:35.756Z,19.46
2022-09-07T08:41:03.956Z,19.43
2022-09-07T08:43:36.902Z,19.60
2022-09-07T08:46:25.914Z,19.68
2022-09-07T08:48:52.439Z,19.76
2022-09-07T08:51:42.121Z,19.80
2022-09-07T08:54:12.558Z,19.70
2022-09-07T08:57:20.642Z,19.69
2022-09-07T08:59:52.899Z,19.88
2022-09-07T09:02:40.206Z,20.07
2022-09-07T09:05:18.195Z,20.27
2022-09-07T09:08:11.986Z,20.43
2022-09-07T09:10:51.478Z,20.44
2022-09-07T09:13:22.385Z,20.59
2022-09-07T09:15:57.955Z,20.75
2022-09-07T09:18:46.379Z,20.88
2022-09-07T09:21:18.822Z,20.99
2022-09-07T09:23:50.085Z,21.05
2022-09-07T09:26:27.359Z,21.13
2022-09-07T09:28:53.756Z,21.23
2022-09-07T09:31:22.315Z,21.35
2022-09-07T09:34:08.509Z,21.38
2022-09-07T09:36:41.247Z,21.43
2022-09-07T09:39:31.850Z,21.42
2022-09-07T09:42:01.654Z,21.50
2022-09-07T09:44:34.760Z,21.65
2022-09-07T09:49:48.941Z,22.06
2022-09-07T09:52:42.198Z,22.05
2022-09-07T09:55:30.516Z,22.12
2022-09-07T10:03:55.863Z,22.62
2022-09-07T10:06:23.136Z,22.62
2022-09-07T10:08:56.524Z,22.83
2022-09-07T10:14:41.785Z,23.21
2022-09-07T10:17:23.059Z,23.24
2022-09-07T10:19:49.720Z,23.20
2022-09-07T10:22:36.919Z,23.28
2022-09-07T10:25:24.776Z,23.26
2022-09-07T10:28:10.216Z,23.22
2022-09-07T10:30:43.249Z,23.42
2022-09-07T10:33:20.961Z,23.31
2022-09-07T10:35:59.982Z,23.41
2022-09-07T10:38:30.808Z,23.50
2022-09-07T10:41:07.507Z,23.70
2022-09-07T10:43:42.340Z,23.90
2022-09-07T10:47:03.169Z,24.02
2022-09-07T10:52:43.951Z,24.36
2022-09-07T10:55:26.527Z,24.26
2022-09-07T10:58:15.882Z,24.41
2022-09-07T11:01:16.714Z,24.73
2022-09-07T11:03:58.411Z,24.98
2022-09-07T11:06:37.636Z,25.01
2022-09-07T11:09:40.023Z,25.11
2022-09-07T11:12:15.133Z,25.31
2022-09-07T11:15:04.694Z,25.50
2022-09-07T11:17:33.044Z,25.56
2022-09-07T11:20:15.477Z,25.62
2022-09-07T11:22:47.569Z,25.87
2022-09-07T11:25:35.605Z,25.90
2022-09-07T11:28:22.909Z,25.82
2022-09-07T11:31:00.035Z,25.76
2022-09-07T11:33:36.947Z,25.81
2022-09-07T11:36:12.543Z,25.85
2022-09-07T11:39:00.927Z,26.03
2022-09-07T11:41:34.051Z,26.32
2022-09-07T11:44:13.569Z,26.55
2022-09-07T11:46:51.210Z,26.92
2022-09-07T11:49:22.189Z,27.23
2022-09-07T11:51:54.090Z,27.34
2022-09-07T11:54:33.727Z,27.56
2022-09-07T11:57:35.536Z,27.64
2022-09-07T12:00:12.484Z,27.72
2022-09-07T12:03:01.083Z,27.88
2022-09-07T12:05:44.788Z,28.08
2022-09-07T12:08:51.557Z,28.32
2022-09-07T12:11:42.499Z,28.53
2022-09-07T12:14:21.487Z,28.64
2022-09-07T12:16:59.722Z,28.66
2022-09-07T12:19:27.441Z,28.69
2022-09-07T12:21:53.501Z,28.66
2022-09-07T12:24:37.999Z,28.50
2022-09-07T12:27:08.800Z,28.44
2022-09-07T12:29:34.944Z,28.36
2022-09-07T12:34:53.486Z,28.19
2022-09-07T12:37:39.389Z,28.04
2022-09-07T12:40:27.264Z,27.90
2022-09-07T12:43:15.012Z,27.78
2022-09-07T12:45:41.676Z,27.65
2022-09-07T12:48:17.003Z,27.59
2022-09-07T12:51:07.058Z,27.52
2022-09-07T12:54:16.790Z,27.82
2022-09-07T13:00:07.007Z,28.13
2022-09-07T13:03:04.806Z,28.20
2022-09-07T13:05:49.909Z,28.11
2022-09-07T13:08:30.368Z,27.93
2022-09-07T13:10:56.531Z,27.71
2022-09-07T13:16:14.096Z,26.83
2022-09-07T13:18:41.839Z,26.78
2022-09-07T13:21:08.117Z,26.80
2022-09-07T13:23:35.878Z,26.86
2022-09-07T13:26:03.614Z,26.60
2022-09-07T13:28:48.808Z,26.56
2022-09-07T13:31:33.775Z,26.60
2022-09-07T13:34:00.590Z,26.84
2022-09-07T13:36:39.372Z,26.99
2022-09-07T13:39:11.576Z,27.07
2022-09-07T13:41:43.371Z,27.12
2022-09-07T13:44:25.066Z,27.07
2022-09-07T13:47:20.263Z,26.79
2022-09-07T13:50:05.282Z,26.64
2022-09-07T13:53:05.648Z,26.78
2022-09-07T13:55:45.146Z,26.84
2022-09-07T13:58:18.131Z,26.83
2022-09-07T14:00:53.079Z,26.88
2022-09-07T14:03:19.959Z,27.04
2022-09-07T14:05:46.075Z,27.06
2022-09-07T14:08:29.603Z,27.19
2022-09-07T14:10:55.888Z,27.43
2022-09-07T14:13:22.166Z,27.40
2022-09-07T14:15:50.543Z,27.33
2022-09-07T14:18:22.378Z,27.73
2022-09-07T14:20:53.686Z,28.04
2022-09-07T14:23:31.002Z,28.18
2022-09-07T14:26:22.941Z,28.26
2022-09-07T14:28:52.632Z,28.23
2022-09-07T14:31:21.164Z,28.01
2022-09-07T14:33:54.983Z,27.65
2022-09-07T14:36:43.992Z,27.39
2022-09-07T14:39:13.091Z,27.52
2022-09-07T14:41:41.460Z,27.60
2022-09-07T14:44:27.427Z,27.60
2022-09-07T14:46:56.813Z,27.70
2022-09-07T14:49:23.762Z,27.96
2022-09-07T14:51:52.124Z,27.80
2022-09-07T14:54:22.439Z,27.75
2022-09-07T14:57:18.218Z,28.06
2022-09-07T14:59:46.212Z,28.15
2022-09-07T15:02:18.442Z,28.26
2022-09-07T15:04:45.901Z,28.17
2022-09-07T15:07:38.322Z,28.07
2022-09-07T15:10:32.500Z,27.87
2022-09-07T15:13:01.350Z,27.69
2022-09-07T15:15:37.645Z,27.75
2022-09-07T15:18:25.604Z,27.73
2022-09-07T15:20:52.884Z,27.68
2022-09-07T15:23:19.621Z,27.44
2022-09-07T15:25:52.071Z,27.49
2022-09-07T15:34:03.168Z,27.75
2022-09-07T15:36:31.958Z,27.88
2022-09-07T15:38:59.907Z,27.82
2022-09-07T15:41:27.792Z,27.50
2022-09-07T15:43:53.987Z,27.02
2022-09-07T15:46:20.165Z,26.54
2022-09-07T15:48:51.328Z,26.29
2022-09-07T15:54:12.171Z,26.31
2022-09-07T15:56:40.053Z,26.24
2022-09-07T15:59:06.416Z,26.10
2022-09-07T16:04:18.709Z,26.05
2022-09-07T16:06:47.880Z,26.28
2022-09-07T16:09:14.757Z,26.40
2022-09-07T16:11:40.866Z,26.48
2022-09-07T16:14:07.009Z,26.39
2022-09-07T16:19:20.855Z,26.11
2022-09-07T16:21:47.150Z,25.93
2022-09-07T16:24:13.262Z,25.85
2022-09-07T16:26:39.400Z,25.81
2022-09-07T16:29:05.537Z,25.69
2022-09-07T16:31:31.938Z,25.37
2022-09-07T16:33:58.231Z,25.18
2022-09-07T16:36:24.525Z,25.07
2022-09-07T16:38:59.178Z,24.78
2022-09-07T16:41:32.059Z,24.65
2022-09-07T16:43:59.094Z,24.48
2022-09-07T16:46:28.727Z,24.23
2022-09-07T16:48:55.292Z,24.02
2022-09-07T16:51:23.033Z,23.90
2022-09-07T16:53:50.951Z,23.68
2022-09-07T16:56:23.330Z,23.51
2022-09-07T16:58:52.528Z,23.35
2022-09-07T17:01:23.041Z,23.19
2022-09-07T17:03:50.158Z,23.06
2022-09-07T17:06:18.111Z,22.92
2022-09-07T17:08:44.776Z,22.83
2022-09-07T17:11:14.413Z,22.70
2022-09-07T17:13:41.799Z,22.58
2022-09-07T17:16:16.876Z,22.48
2022-09-07T17:21:33.278Z,22.33
2022-09-07T17:23:59.901Z,22.22
2022-09-07T17:26:27.517Z,22.13
2022-09-07T17:28:56.580Z,22.02
2022-09-07T17:34:15.336Z,21.79
2022-09-07T17:36:42.622Z,21.69
2022-09-07T17:39:24.243Z,21.57
2022-09-07T17:41:54.560Z,21.44
2022-09-07T17:44:23.689Z,21.33
2022-09-07T17:46:50.145Z,21.19
2022-09-07T17:49:16.996Z,21.12
2022-09-07T17:51:44.305Z,21.03
2022-09-07T17:54:14.825Z,20.96
2022-09-07T17:56:41.900Z,20.90
2022-09-07T18:01:55.549Z,20.78
2022-09-07T18:04:22.177Z,20.74
2022-09-07T18:06:48.544Z,20.72
2022-09-07T18:09:14.929Z,20.72
2022-09-07T18:11:45.496Z,20.73
2022-09-07T18:14:13.702Z,20.84
2022-09-07T18:16:40.446Z,21.02
2022-09-07T18:19:09.489Z,20.65
2022-09-07T18:21:37.193Z,19.90
2022-09-07T18:24:13.539Z,18.76
2022-09-07T18:26:40.164Z,18.42
2022-09-07T18:29:18.798Z,18.27
2022-09-07T18:31:53.943Z,18.25
2022-09-07T18:34:20.669Z,18.30
2022-09-07T18:36:46.956Z,18.29
2022-09-07T18:39:13.697Z,18.25
2022-09-07T18:41:40.982Z,18.15
2022-09-07T18:45:26.976Z,18.08
2022-09-07T18:46:53.541Z,17.98
2022-09-07T18:49:19.675Z,17.85
2022-09-07T18:54:32.063Z,17.61
2022-09-07T18:56:58.442Z,17.49
2022-09-07T18:59:24.637Z,17.30
2022-09-07T19:02:05.898Z,17.21
2022-09-07T19:07:30.097Z,17.07
2022-09-07T19:09:58.166Z,17.03
2022-09-07T19:12:24.975Z,17.01
2022-09-07T19:14:51.164Z,16.93
2022-09-07T19:17:18.048Z,16.86
2022-09-07T19:19:44.437Z,16.81
2022-09-07T19:22:10.766Z,16.78
2022-09-07T19:24:37.593Z,16.76
2022-09-07T19:27:03.825Z,16.74
2022-09-07T19:29:30.075Z,16.73
2022-09-07T19:32:05.399Z,16.69
2022-09-07T19:34:32.402Z,16.66
2022-09-07T19:36:58.909Z,16.62
2022-09-07T19:39:25.161Z,16.60
2022-09-07T19:41:51.280Z,16.60
2022-09-07T19:44:17.437Z,16.55
2022-09-07T19:46:45.213Z,16.53
2022-09-07T19:49:12.437Z,16.52
2022-09-07T19:51:40.226Z,16.46
2022-09-07T19:54:06.940Z,16.39
2022-09-07T19:56:33.320Z,16.35
2022-09-07T19:58:59.522Z,16.28
2022-09-07T20:01:25.942Z,16.23
2022-09-07T20:03:57.886Z,16.19
2022-09-07T20:06:24.161Z,16.06
2022-09-07T20:08:50.321Z,16.05
2022-09-07T20:11:17.780Z,16.06
2022-09-07T20:13:44.844Z,16.05
2022-09-07T20:16:13.913Z,16.03
2022-09-07T20:18:40.231Z,16.00
2022-09-07T20:21:11.565Z,15.98
2022-09-07T20:23:38.480Z,15.98
2022-09-07T20:26:07.839Z,15.98
2022-09-07T20:28:37.002Z,15.98
2022-09-07T20:31:22.858Z,16.01
2022-09-07T20:33:50.243Z,16.03
2022-09-07T20:36:21.329Z,15.99
2022-09-07T20:38:54.744Z,15.82
2022-09-07T20:41:29.302Z,15.82
2022-09-07T20:43:56.953Z,15.77
2022-09-07T20:46:23.154Z,15.81
2022-09-07T20:48:49.325Z,15.80
2022-09-07T20:51:20.815Z,15.80
2022-09-07T20:53:48.722Z,15.78
2022-09-07T20:56:23.073Z,15.84
2022-09-07T20:58:53.856Z,15.80
2022-09-07T21:01:32.763Z,15.79
2022-09-07T21:04:02.690Z,15.75
2022-09-07T21:06:34.936Z,15.72
2022-09-07T21:09:03.210Z,15.74
2022-09-07T21:11:35.522Z,15.65
2022-09-07T21:14:06.669Z,15.64
2022-09-07T21:16:33.852Z,15.65
2022-09-07T21:19:01.370Z,15.70
2022-09-07T21:21:29.071Z,15.71
2022-09-07T21:23:57.862Z,15.69
2022-09-07T21:26:24.671Z,15.68
2022-09-07T21:29:01.650Z,15.63
2022-09-07T21:31:38.591Z,15.62
2022-09-07T21:37:04.439Z,15.67
2022-09-07T21:39:30.853Z,15.70
2022-09-07T21:42:01.332Z,15.68
2022-09-07T21:44:27.602Z,15.72
2022-09-07T21:46:56.289Z,15.75
2022-09-07T21:49:22.988Z,15.74
2022-09-07T21:51:50.932Z,15.72
2022-09-07T21:54:17.124Z,15.72
2022-09-07T21:56:46.824Z,15.69
2022-09-07T21:59:13.336Z,15.70
2022-09-07T22:01:40.405Z,15.69
2022-09-07T22:04:10.069Z,15.66
2022-09-07T22:06:37.774Z,15.66
2022-09-07T22:09:05.066Z,15.64
2022-09-07T22:11:32.002Z,15.58
2022-09-07T22:14:03.084Z,15.63
2022-09-07T22:16:29.994Z,15.68
2022-09-07T22:18:56.277Z,15.64
2022-09-07T22:21:24.748Z,15.65
2022-09-07T22:23:53.168Z,15.67
2022-09-07T22:26:21.596Z,15.70
2022-09-07T22:28:48.607Z,15.69
2022-09-07T22:31:27.464Z,15.70
2022-09-07T22:33:54.717Z,15.70
2022-09-07T22:36:24.083Z,15.72
2022-09-07T22:38:53.627Z,15.72
2022-09-07T22:41:33.811Z,15.78
2022-09-07T22:44:00.869Z,15.80
2022-09-07T22:46:29.377Z,15.85
2022-09-07T22:48:58.338Z,15.84
2022-09-07T22:51:25.344Z,15.87
2022-09-07T22:53:51.782Z,15.86
2022-09-07T22:56:21.400Z,15.86
2022-09-07T22:58:59.464Z,15.88
2022-09-07T23:01:26.917Z,15.86
2022-09-07T23:03:53.542Z,15.84
2022-09-07T23:06:25.620Z,15.75
2022-09-07T23:08:52.901Z,15.78
2022-09-07T23:11:19.884Z,15.76
2022-09-07T23:13:46.093Z,15.79
2022-09-07T23:16:12.305Z,15.74
2022-09-07T23:18:40.757Z,15.74
2022-09-07T23:21:07.149Z,15.72
2022-09-07T23:23:33.328Z,15.70
2022-09-07T23:26:04.328Z,15.69
2022-09-07T23:28:30.979Z,15.72
2022-09-07T23:30:57.910Z,15.72
2022-09-07T23:33:26.183Z,15.70
2022-09-07T23:36:10.535Z,15.69
2022-09-07T23:38:36.652Z,15.67
2022-09-07T23:41:02.842Z,15.63
2022-09-07T23:43:30.297Z,15.60
2022-09-07T23:45:57.273Z,15.57
2022-09-07T23:48:24.203Z,15.60
2022-09-07T23:50:50.540Z,15.61
2022-09-07T23:53:18.034Z,15.56
2022-09-07T23:55:44.369Z,15.56
2022-09-07T23:58:10.498Z,15.54
